Archival Weather

Norman Y Mineta San Jose Intl

San Jose, California (KSJC)

Report from: Wednesday, February 21, 2024 6:53 PM PST
Current time: Monday, June 17, 2024 1:20 AM PDT

Current weather – Weather history – Daily summaries
Weather forecast

Temperature13.3°C (55.9°F)
Dew point7.8°C (46.0°F)
Winds 6 kts (3.1 m/s, 6.9 mph) Northwest (320°)
Visibility10 mi. (16.1 km)
Clouds Sky clear
Altimeter30.20 in.Hg (1023 mB)
Relative humidity69 %
Density altitude-362 ft. (-110 m)
Sea-level pressure102.3 kPa (1023 mB, 30.19 in.Hg)
Remarks Automated weather observing station with precipitation discriminator
Pressure rising more quickly
Flight conditions Visual Meteorological Conditions
Raw dataKSJC 220253Z 32006KT 10SM CLR 13/08 A3020 RMK AO2 SLP225 T01330078 53009
An error has occurred. This application may no longer respond until reloaded. Reload 🗙